sensor_id;sensor_type;location;lat;lon;timestamp;pressure;altitude;pressure_sealevel;temperature;humidity
63006;BME280;53704;52.532;6.426;2023-03-25T00:02:08;99999.91;;;7.94;100.00
63006;BME280;53704;52.532;6.426;2023-03-25T00:04:33;100012.16;;;8.05;100.00
63006;BME280;53704;52.532;6.426;2023-03-25T00:06:59;100013.81;;;7.98;100.00
63006;BME280;53704;52.532;6.426;2023-03-25T00:09:26;100006.47;;;8.00;100.00
63006;BME280;53704;52.532;6.426;2023-03-25T00:11:51;100007.47;;;7.99;100.00
63006;BME280;53704;52.532;6.426;2023-03-25T00:14:17;99998.94;;;7.95;100.00
63006;BME280;53704;52.532;6.426;2023-03-25T00:16:43;99998.59;;;7.99;100.00
63006;BME280;53704;52.532;6.426;2023-03-25T00:19:13;99998.22;;;8.02;100.00
63006;BME280;53704;52.532;6.426;2023-03-25T00:21:40;99988.53;;;8.01;100.00
63006;BME280;53704;52.532;6.426;2023-03-25T00:24:09;99992.03;;;8.01;100.00
63006;BME280;53704;52.532;6.426;2023-03-25T00:26:37;99985.19;;;7.99;100.00
63006;BME280;53704;52.532;6.426;2023-03-25T00:29:07;99986.03;;;7.91;100.00
63006;BME280;53704;52.532;6.426;2023-03-25T00:31:32;99989.69;;;7.90;100.00
63006;BME280;53704;52.532;6.426;2023-03-25T00:33:58;99980.00;;;7.97;100.00
63006;BME280;53704;52.532;6.426;2023-03-25T00:36:24;99985.03;;;8.00;100.00
63006;BME280;53704;52.532;6.426;2023-03-25T00:38:49;99982.84;;;7.95;100.00
63006;BME280;53704;52.532;6.426;2023-03-25T00:41:20;99981.16;;;7.94;100.00
63006;BME280;53704;52.532;6.426;2023-03-25T00:43:54;99999.44;;;7.99;100.00
63006;BME280;53704;52.532;6.426;2023-03-25T00:46:20;99985.19;;;7.99;100.00
63006;BME280;53704;52.532;6.426;2023-03-25T00:48:47;99987.72;;;8.00;100.00
63006;BME280;53704;52.532;6.426;2023-03-25T00:51:13;99986.19;;;7.97;100.00
63006;BME280;53704;52.532;6.426;2023-03-25T00:53:46;99988.22;;;7.95;100.00
63006;BME280;53704;52.532;6.426;2023-03-25T00:56:13;99983.69;;;7.96;100.00
63006;BME280;53704;52.532;6.426;2023-03-25T00:58:39;99984.50;;;8.05;100.00
63006;BME280;53704;52.532;6.426;2023-03-25T01:01:12;99983.69;;;7.96;100.00
63006;BME280;53704;52.532;6.426;2023-03-25T01:03:39;99976.63;;;7.95;100.00
63006;BME280;53704;52.532;6.426;2023-03-25T01:06:15;99990.03;;;8.03;100.00
63006;BME280;53704;52.532;6.426;2023-03-25T01:08:43;99976.97;;;8.08;100.00
63006;BME280;53704;52.532;6.426;2023-03-25T01:11:20;99985.19;;;7.99;100.00
63006;BME280;53704;52.532;6.426;2023-03-25T01:13:46;99977.81;;;8.01;100.00
63006;BME280;53704;52.532;6.426;2023-03-25T01:16:12;99989.03;;;7.96;100.00
63006;BME280;53704;52.532;6.426;2023-03-25T01:18:37;99986.84;;;7.83;100.00
63006;BME280;53704;52.532;6.426;2023-03-25T01:21:04;99987.84;;;7.90;100.00
63006;BME280;53704;52.532;6.426;2023-03-25T01:23:30;99992.22;;;7.91;100.00
63006;BME280;53704;52.532;6.426;2023-03-25T01:25:56;99998.56;;;7.82;100.00
63006;BME280;53704;52.532;6.426;2023-03-25T01:28:21;99998.72;;;7.72;100.00
63006;BME280;53704;52.532;6.426;2023-03-25T01:30:47;99991.19;;;7.68;100.00
63006;BME280;53704;52.532;6.426;2023-03-25T01:33:13;99998.56;;;7.57;100.00
63006;BME280;53704;52.532;6.426;2023-03-25T01:35:38;99997.53;;;7.50;100.00
63006;BME280;53704;52.532;6.426;2023-03-25T01:38:03;100006.69;;;7.39;100.00
63006;BME280;53704;52.532;6.426;2023-03-25T01:40:29;99997.69;;;7.40;100.00
63006;BME280;53704;52.532;6.426;2023-03-25T01:42:55;99994.13;;;7.40;100.00
63006;BME280;53704;52.532;6.426;2023-03-25T01:48:00;99990.69;;;7.64;100.00
63006;BME280;53704;52.532;6.426;2023-03-25T01:50:27;99991.66;;;7.47;100.00
63006;BME280;53704;52.532;6.426;2023-03-25T01:52:55;99995.50;;;7.44;100.00
63006;BME280;53704;52.532;6.426;2023-03-25T01:55:22;99990.78;;;7.38;100.00
63006;BME280;53704;52.532;6.426;2023-03-25T01:57:50;99997.84;;;7.39;100.00
63006;BME280;53704;52.532;6.426;2023-03-25T02:00:19;100000.84;;;7.36;100.00
63006;BME280;53704;52.532;6.426;2023-03-25T02:02:45;99997.13;;;7.29;100.00
63006;BME280;53704;52.532;6.426;2023-03-25T02:05:17;99982.41;;;7.24;100.00
63006;BME280;53704;52.532;6.426;2023-03-25T02:07:46;99987.28;;;7.29;100.00
63006;BME280;53704;52.532;6.426;2023-03-25T02:10:13;99974.22;;;7.26;100.00
63006;BME280;53704;52.532;6.426;2023-03-25T02:12:41;99986.06;;;7.23;100.00
63006;BME280;53704;52.532;6.426;2023-03-25T02:15:08;99988.78;;;7.32;100.00
63006;BME280;53704;52.532;6.426;2023-03-25T02:23:20;99981.22;;;7.27;100.00
63006;BME280;53704;52.532;6.426;2023-03-25T02:31:35;99976.56;;;7.29;100.00
63006;BME280;53704;52.532;6.426;2023-03-25T02:42:45;99973.00;;;7.20;100.00
63006;BME280;53704;52.532;6.426;2023-03-25T02:45:28;99974.16;;;7.18;100.00
63006;BME280;53704;52.532;6.426;2023-03-25T02:48:06;99963.28;;;7.19;100.00
63006;BME280;53704;52.532;6.426;2023-03-25T02:50:43;99975.03;;;7.18;100.00
63006;BME280;53704;52.532;6.426;2023-03-25T02:53:15;99971.31;;;7.19;100.00
63006;BME280;53704;52.532;6.426;2023-03-25T02:55:45;99973.72;;;7.31;100.00
63006;BME280;53704;52.532;6.426;2023-03-25T02:58:14;99966.28;;;7.16;100.00
63006;BME280;53704;52.532;6.426;2023-03-25T03:00:42;99975.84;;;7.19;100.00
63006;BME280;53704;52.532;6.426;2023-03-25T03:03:08;99962.78;;;7.16;100.00
63006;BME280;53704;52.532;6.426;2023-03-25T03:05:37;99959.63;;;7.12;100.00
63006;BME280;53704;52.532;6.426;2023-03-25T03:08:14;99969.50;;;7.12;100.00
63006;BME280;53704;52.532;6.426;2023-03-25T03:19:39;99966.97;;;7.10;100.00
63006;BME280;53704;52.532;6.426;2023-03-25T03:25:08;99951.41;;;7.05;100.00
63006;BME280;53704;52.532;6.426;2023-03-25T03:35:32;99962.94;;;7.06;100.00
63006;BME280;53704;52.532;6.426;2023-03-25T03:38:09;99962.28;;;7.04;100.00
63006;BME280;53704;52.532;6.426;2023-03-25T03:40:39;99964.56;;;6.99;100.00
63006;BME280;53704;52.532;6.426;2023-03-25T03:43:13;99964.56;;;6.99;100.00
63006;BME280;53704;52.532;6.426;2023-03-25T03:45:46;99965.59;;;6.98;100.00
63006;BME280;53704;52.532;6.426;2023-03-25T03:48:24;99980.13;;;6.95;100.00
63006;BME280;53704;52.532;6.426;2023-03-25T03:51:15;99975.56;;;6.87;100.00
63006;BME280;53704;52.532;6.426;2023-03-25T03:53:57;99977.91;;;6.91;100.00
63006;BME280;53704;52.532;6.426;2023-03-25T03:56:30;99974.94;;;7.02;100.00
63006;BME280;53704;52.532;6.426;2023-03-25T03:59:05;99970.75;;;6.91;100.00
63006;BME280;53704;52.532;6.426;2023-03-25T04:01:40;99978.47;;;6.94;100.00
63006;BME280;53704;52.532;6.426;2023-03-25T04:04:21;99974.94;;;7.02;100.00
63006;BME280;53704;52.532;6.426;2023-03-25T04:07:07;99968.59;;;6.95;100.00
63006;BME280;53704;52.532;6.426;2023-03-25T04:10:17;99971.94;;;7.05;100.00
63006;BME280;53704;52.532;6.426;2023-03-25T04:12:50;99970.00;;;7.15;100.00
63006;BME280;53704;52.532;6.426;2023-03-25T04:15:17;99961.78;;;7.09;100.00
63006;BME280;53704;52.532;6.426;2023-03-25T04:17:42;99964.72;;;6.97;100.00
63006;BME280;53704;52.532;6.426;2023-03-25T04:20:13;99968.25;;;6.98;100.00
63006;BME280;53704;52.532;6.426;2023-03-25T04:22:39;99964.72;;;6.97;100.00
63006;BME280;53704;52.532;6.426;2023-03-25T04:25:10;99961.56;;;7.02;100.00
63006;BME280;53704;52.532;6.426;2023-03-25T04:27:36;99954.91;;;7.06;100.00
63006;BME280;53704;52.532;6.426;2023-03-25T04:30:06;99958.41;;;7.06;100.00
63006;BME280;53704;52.532;6.426;2023-03-25T04:32:32;99957.56;;;6.98;100.00
63006;BME280;53704;52.532;6.426;2023-03-25T04:34:59;99960.88;;;6.92;100.00
63006;BME280;53704;52.532;6.426;2023-03-25T04:37:27;99965.28;;;7.09;100.00
63006;BME280;53704;52.532;6.426;2023-03-25T04:39:53;99952.25;;;7.14;100.00
63006;BME280;53704;52.532;6.426;2023-03-25T04:42:20;99958.06;;;7.01;100.00
63006;BME280;53704;52.532;6.426;2023-03-25T04:44:50;99956.38;;;7.00;100.00
63006;BME280;53704;52.532;6.426;2023-03-25T04:47:20;99955.22;;;6.95;100.00
63006;BME280;53704;52.532;6.426;2023-03-25T04:49:47;99956.19;;;6.94;100.00
63006;BME280;53704;52.532;6.426;2023-03-25T04:52:12;99958.25;;;7.08;100.00
63006;BME280;53704;52.532;6.426;2023-03-25T04:54:38;99947.19;;;6.95;100.00
63006;BME280;53704;52.532;6.426;2023-03-25T04:57:04;99950.19;;;7.00;100.00
63006;BME280;53704;52.532;6.426;2023-03-25T04:59:32;99947.34;;;6.93;100.00
63006;BME280;53704;52.532;6.426;2023-03-25T05:01:58;99951.72;;;7.02;100.00
63006;BME280;53704;52.532;6.426;2023-03-25T05:04:23;99944.84;;;7.00;100.00
63006;BME280;53704;52.532;6.426;2023-03-25T05:06:49;99939.00;;;7.04;100.00
63006;BME280;53704;52.532;6.426;2023-03-25T05:09:17;99941.19;;;7.01;100.00
63006;BME280;53704;52.532;6.426;2023-03-25T05:11:44;99938.13;;;6.96;100.00
63006;BME280;53704;52.532;6.426;2023-03-25T05:14:11;99938.81;;;6.98;100.00
63006;BME280;53704;52.532;6.426;2023-03-25T05:16:37;99946.69;;;6.99;100.00
63006;BME280;53704;52.532;6.426;2023-03-25T05:19:03;99936.78;;;6.92;100.00
63006;BME280;53704;52.532;6.426;2023-03-25T05:21:31;99940.66;;;6.97;100.00
63006;BME280;53704;52.532;6.426;2023-03-25T05:23:57;99937.66;;;7.00;100.00
63006;BME280;53704;52.532;6.426;2023-03-25T05:26:26;99940.78;;;6.87;100.00
63006;BME280;53704;52.532;6.426;2023-03-25T05:29:01;99943.63;;;6.86;100.00
63006;BME280;53704;52.532;6.426;2023-03-25T05:31:27;99934.59;;;6.79;100.00
63006;BME280;53704;52.532;6.426;2023-03-25T05:33:53;99945.25;;;6.70;100.00
63006;BME280;53704;52.532;6.426;2023-03-25T05:36:19;99943.56;;;6.69;100.00
63006;BME280;53704;52.532;6.426;2023-03-25T05:38:44;99949.38;;;6.65;100.00
63006;BME280;53704;52.532;6.426;2023-03-25T05:41:14;99956.59;;;6.64;100.00
63006;BME280;53704;52.532;6.426;2023-03-25T05:43:43;99948.41;;;6.66;100.00
63006;BME280;53704;52.532;6.426;2023-03-25T05:46:21;99964.13;;;6.69;100.00
63006;BME280;53704;52.532;6.426;2023-03-25T05:48:47;99957.94;;;6.68;100.00
63006;BME280;53704;52.532;6.426;2023-03-25T05:51:17;99971.63;;;6.65;100.00
63006;BME280;53704;52.532;6.426;2023-03-25T05:53:47;99956.59;;;6.64;100.00
63006;BME280;53704;52.532;6.426;2023-03-25T05:56:16;99958.78;;;6.69;100.00
63006;BME280;53704;52.532;6.426;2023-03-25T05:58:44;99963.41;;;6.59;100.00
63006;BME280;53704;52.532;6.426;2023-03-25T06:01:10;99963.72;;;6.56;100.00
63006;BME280;53704;52.532;6.426;2023-03-25T06:03:38;99969.22;;;6.54;100.00
63006;BME280;53704;52.532;6.426;2023-03-25T06:06:04;99966.44;;;6.64;100.00
63006;BME280;53704;52.532;6.426;2023-03-25T06:08:29;99984.28;;;6.55;100.00
63006;BME280;53704;52.532;6.426;2023-03-25T06:10:56;99988.44;;;6.58;100.00
63006;BME280;53704;52.532;6.426;2023-03-25T06:13:25;99983.50;;;6.63;100.00
63006;BME280;53704;52.532;6.426;2023-03-25T06:15:51;99981.66;;;6.63;100.00
63006;BME280;53704;52.532;6.426;2023-03-25T06:18:21;99981.84;;;6.70;100.00
63006;BME280;53704;52.532;6.426;2023-03-25T06:20:49;99980.81;;;6.63;100.00
63006;BME280;53704;52.532;6.426;2023-03-25T06:23:16;99973.34;;;6.75;100.00
63006;BME280;53704;52.532;6.426;2023-03-25T06:25:43;99985.09;;;6.56;100.00
63006;BME280;53704;52.532;6.426;2023-03-25T06:28:08;99995.53;;;6.67;100.00
63006;BME280;53704;52.532;6.426;2023-03-25T06:30:34;99988.88;;;6.71;100.00
63006;BME280;53704;52.532;6.426;2023-03-25T06:32:59;99995.38;;;6.68;100.00
63006;BME280;53704;52.532;6.426;2023-03-25T06:35:27;99990.34;;;6.65;100.00
63006;BME280;53704;52.532;6.426;2023-03-25T06:37:52;99986.88;;;6.73;100.00
63006;BME280;53704;52.532;6.426;2023-03-25T06:40:18;99993.72;;;6.67;100.00
63006;BME280;53704;52.532;6.426;2023-03-25T06:42:44;99989.38;;;6.75;100.00
63006;BME280;53704;52.532;6.426;2023-03-25T06:45:10;99996.78;;;6.81;100.00
63006;BME280;53704;52.532;6.426;2023-03-25T06:47:37;99992.09;;;6.83;100.00
63006;BME280;53704;52.532;6.426;2023-03-25T06:50:03;99985.44;;;6.87;100.00
63006;BME280;53704;52.532;6.426;2023-03-25T06:52:28;99985.31;;;6.97;100.00
63006;BME280;53704;52.532;6.426;2023-03-25T06:54:54;99985.00;;;7.00;100.00
63006;BME280;53704;52.532;6.426;2023-03-25T06:57:19;99991.53;;;7.05;100.00
63006;BME280;53704;52.532;6.426;2023-03-25T06:59:45;99985.66;;;7.02;100.00
63006;BME280;53704;52.532;6.426;2023-03-25T07:02:12;99983.34;;;7.07;100.00
63006;BME280;53704;52.532;6.426;2023-03-25T07:04:39;99977.84;;;7.09;100.00
63006;BME280;53704;52.532;6.426;2023-03-25T07:07:04;99974.78;;;7.03;100.00
63006;BME280;53704;52.532;6.426;2023-03-25T07:09:29;99976.34;;;7.14;100.00
63006;BME280;53704;52.532;6.426;2023-03-25T07:11:55;99972.31;;;7.10;100.00
63006;BME280;53704;52.532;6.426;2023-03-25T07:14:20;99970.50;;;7.19;100.00
63006;BME280;53704;52.532;6.426;2023-03-25T07:16:46;99975.84;;;7.19;100.00
63006;BME280;53704;52.532;6.426;2023-03-25T07:19:11;99984.75;;;7.28;100.00
63006;BME280;53704;52.532;6.426;2023-03-25T07:21:37;99982.75;;;7.30;100.00
63006;BME280;53704;52.532;6.426;2023-03-25T07:24:02;99976.09;;;7.42;100.00
63006;BME280;53704;52.532;6.426;2023-03-25T07:26:27;99977.41;;;7.46;100.00
63006;BME280;53704;52.532;6.426;2023-03-25T07:28:53;99983.47;;;7.56;100.00
63006;BME280;53704;52.532;6.426;2023-03-25T07:31:18;99983.47;;;7.56;100.00
63006;BME280;53704;52.532;6.426;2023-03-25T07:33:44;99986.31;;;7.55;100.00
63006;BME280;53704;52.532;6.426;2023-03-25T07:36:11;99985.50;;;7.54;100.00
63006;BME280;53704;52.532;6.426;2023-03-25T07:38:37;99984.97;;;7.51;100.00
63006;BME280;53704;52.532;6.426;2023-03-25T07:41:10;99996.88;;;7.48;100.00
63006;BME280;53704;52.532;6.426;2023-03-25T07:43:37;100013.41;;;7.35;100.00
63006;BME280;53704;52.532;6.426;2023-03-25T07:46:03;100011.06;;;7.32;100.00
63006;BME280;53704;52.532;6.426;2023-03-25T07:48:28;100009.69;;;7.36;100.00
63006;BME280;53704;52.532;6.426;2023-03-25T07:50:54;100016.72;;;7.29;100.00
63006;BME280;53704;52.532;6.426;2023-03-25T07:53:20;100014.88;;;7.30;100.00
63006;BME280;53704;52.532;6.426;2023-03-25T07:55:45;100017.25;;;7.41;100.00
63006;BME280;53704;52.532;6.426;2023-03-25T07:58:14;100016.75;;;7.46;100.00
63006;BME280;53704;52.532;6.426;2023-03-25T08:00:39;100013.75;;;7.49;100.00
63006;BME280;53704;52.532;6.426;2023-03-25T08:03:05;100017.59;;;7.46;100.00
63006;BME280;53704;52.532;6.426;2023-03-25T08:05:30;100015.91;;;7.37;100.00
63006;BME280;53704;52.532;6.426;2023-03-25T08:07:56;100009.94;;;7.68;100.00
63006;BME280;53704;52.532;6.426;2023-03-25T08:10:24;100008.25;;;7.58;100.00
63006;BME280;53704;52.532;6.426;2023-03-25T08:12:51;100017.31;;;7.66;100.00
63006;BME280;53704;52.532;6.426;2023-03-25T08:15:18;100009.78;;;7.61;100.00
63006;BME280;53704;52.532;6.426;2023-03-25T08:17:45;100020.34;;;7.79;100.00
63006;BME280;53704;52.532;6.426;2023-03-25T08:20:10;100020.00;;;7.82;100.00
63006;BME280;53704;52.532;6.426;2023-03-25T08:22:37;100017.00;;;7.85;100.00
63006;BME280;53704;52.532;6.426;2023-03-25T08:25:03;100018.00;;;7.84;100.00
63006;BME280;53704;52.532;6.426;2023-03-25T08:27:28;100019.50;;;7.95;100.00
63006;BME280;53704;52.532;6.426;2023-03-25T08:29:54;100021.38;;;7.78;100.00
63006;BME280;53704;52.532;6.426;2023-03-25T08:32:24;100027.38;;;7.96;100.00
63006;BME280;53704;52.532;6.426;2023-03-25T08:34:51;100029.72;;;7.75;100.00
63006;BME280;53704;52.532;6.426;2023-03-25T08:37:16;100021.53;;;7.85;100.00
63006;BME280;53704;52.532;6.426;2023-03-25T08:39:42;100036.13;;;8.07;100.00
63006;BME280;53704;52.532;6.426;2023-03-25T08:42:11;100021.53;;;8.01;100.00
63006;BME280;53704;52.532;6.426;2023-03-25T08:44:37;100022.22;;;8.11;100.00
63006;BME280;53704;52.532;6.426;2023-03-25T08:47:03;100018.19;;;8.07;100.00
63006;BME280;53704;52.532;6.426;2023-03-25T08:49:29;100019.53;;;8.20;100.00
63006;BME280;53704;52.532;6.426;2023-03-25T08:51:54;100026.06;;;8.17;100.00
63006;BME280;53704;52.532;6.426;2023-03-25T08:54:23;100038.47;;;8.26;100.00
63006;BME280;53704;52.532;6.426;2023-03-25T08:56:48;100030.91;;;8.13;100.00
63006;BME280;53704;52.532;6.426;2023-03-25T08:59:14;100034.09;;;8.01;100.00
63006;BME280;53704;52.532;6.426;2023-03-25T09:01:39;100023.72;;;7.89;100.00
63006;BME280;53704;52.532;6.426;2023-03-25T09:04:06;100019.88;;;8.00;100.00
63006;BME280;53704;52.532;6.426;2023-03-25T09:20:18;100027.06;;;8.08;100.00
63006;BME280;53704;52.532;6.426;2023-03-25T09:22:44;100035.94;;;8.08;100.00
63006;BME280;53704;52.532;6.426;2023-03-25T09:25:09;100044.16;;;8.15;100.00
63006;BME280;53704;52.532;6.426;2023-03-25T09:27:35;100048.50;;;7.91;100.00
63006;BME280;53704;52.532;6.426;2023-03-25T09:30:03;100047.50;;;8.09;100.00
63006;BME280;53704;52.532;6.426;2023-03-25T09:32:29;100044.50;;;8.04;100.00
63006;BME280;53704;52.532;6.426;2023-03-25T09:34:54;100039.78;;;8.14;100.00
63006;BME280;53704;52.532;6.426;2023-03-25T09:37:20;100036.94;;;8.24;100.00
63006;BME280;53704;52.532;6.426;2023-03-25T09:39:45;100048.16;;;8.11;100.00
63006;BME280;53704;52.532;6.426;2023-03-25T09:45:04;100052.88;;;8.17;100.00
63006;BME280;53704;52.532;6.426;2023-03-25T09:47:31;100049.34;;;8.33;100.00
63006;BME280;53704;52.532;6.426;2023-03-25T09:50:02;100063.09;;;8.38;100.00
63006;BME280;53704;52.532;6.426;2023-03-25T09:52:41;100053.88;;;8.41;100.00
63006;BME280;53704;52.532;6.426;2023-03-25T09:55:14;100049.88;;;8.53;100.00
63006;BME280;53704;52.532;6.426;2023-03-25T09:57:46;100045.34;;;8.45;100.00
63006;BME280;53704;52.532;6.426;2023-03-25T10:00:24;100037.47;;;8.44;100.00
63006;BME280;53704;52.532;6.426;2023-03-25T10:08:09;100058.38;;;8.81;100.00
63006;BME280;53704;52.532;6.426;2023-03-25T10:13:46;100059.50;;;9.03;100.00
63006;BME280;53704;52.532;6.426;2023-03-25T10:22:08;100050.19;;;9.22;100.00
63006;BME280;53704;52.532;6.426;2023-03-25T10:24:40;100054.91;;;9.52;100.00
63006;BME280;53704;52.532;6.426;2023-03-25T10:29:59;100063.22;;;9.34;100.00
63006;BME280;53704;52.532;6.426;2023-03-25T10:33:11;100061.50;;;9.72;100.00
63006;BME280;53704;52.532;6.426;2023-03-25T10:37:46;100074.06;;;9.17;100.00
63006;BME280;53704;52.532;6.426;2023-03-25T10:40:22;100074.09;;;9.01;100.00
63006;BME280;53704;52.532;6.426;2023-03-25T10:43:13;100068.09;;;8.91;100.00
63006;BME280;53704;52.532;6.426;2023-03-25T10:45:44;100067.75;;;8.94;100.00
63006;BME280;53704;52.532;6.426;2023-03-25T10:48:12;100056.69;;;8.80;100.00
63006;BME280;53704;52.532;6.426;2023-03-25T10:50:39;100062.69;;;8.99;100.00
63006;BME280;53704;52.532;6.426;2023-03-25T10:53:11;100068.25;;;8.89;100.00
63006;BME280;53704;52.532;6.426;2023-03-25T10:55:42;100058.75;;;8.70;100.00
63006;BME280;53704;52.532;6.426;2023-03-25T10:58:15;100066.00;;;9.17;100.00
63006;BME280;53704;52.532;6.426;2023-03-25T11:00:42;100065.44;;;9.30;100.00
63006;BME280;53704;52.532;6.426;2023-03-25T11:03:21;100065.13;;;9.25;100.00
63006;BME280;53704;52.532;6.426;2023-03-25T11:05:49;100072.22;;;9.10;100.00
63006;BME280;53704;52.532;6.426;2023-03-25T11:08:18;100079.38;;;9.26;100.00
63006;BME280;53704;52.532;6.426;2023-03-25T11:10:50;100071.16;;;9.27;100.00
63006;BME280;53704;52.532;6.426;2023-03-25T11:13:26;100061.47;;;9.18;100.00
63006;BME280;53704;52.532;6.426;2023-03-25T11:15:57;100074.44;;;9.46;100.00
63006;BME280;53704;52.532;6.426;2023-03-25T11:18:36;100079.59;;;9.16;100.00
63006;BME280;53704;52.532;6.426;2023-03-25T11:21:11;100078.63;;;9.00;100.00
63006;BME280;53704;52.532;6.426;2023-03-25T11:23:49;100078.41;;;9.18;100.00
63006;BME280;53704;52.532;6.426;2023-03-25T11:26:42;100077.97;;;8.98;100.00
63006;BME280;53704;52.532;6.426;2023-03-25T11:29:16;100079.78;;;9.14;100.00
63006;BME280;53704;52.532;6.426;2023-03-25T11:31:43;100077.31;;;8.88;100.00
63006;BME280;53704;52.532;6.426;2023-03-25T11:36:50;100079.78;;;9.06;100.00
63006;BME280;53704;52.532;6.426;2023-03-25T11:41:49;100079.91;;;9.21;100.00
63006;BME280;53704;52.532;6.426;2023-03-25T11:44:41;100075.19;;;9.23;100.00
63006;BME280;53704;52.532;6.426;2023-03-25T11:47:09;100074.38;;;9.22;100.00
63006;BME280;53704;52.532;6.426;2023-03-25T11:49:37;100074.41;;;9.14;100.00
63006;BME280;53704;52.532;6.426;2023-03-25T11:52:09;100070.03;;;9.13;100.00
63006;BME280;53704;52.532;6.426;2023-03-25T11:54:38;100065.47;;;9.14;100.00
63006;BME280;53704;52.532;6.426;2023-03-25T11:57:06;100056.16;;;9.41;100.00
63006;BME280;53704;52.532;6.426;2023-03-25T11:59:38;100056.03;;;9.26;100.00
63006;BME280;53704;52.532;6.426;2023-03-25T12:02:21;100068.97;;;9.31;100.00
63006;BME280;53704;52.532;6.426;2023-03-25T12:05:03;100084.09;;;9.15;100.00
63006;BME280;53704;52.532;6.426;2023-03-25T12:07:46;100073.63;;;8.89;100.00
63006;BME280;53704;52.532;6.426;2023-03-25T12:10:32;100064.72;;;8.97;100.00
63006;BME280;53704;52.532;6.426;2023-03-25T12:18:52;100051.91;;;9.07;100.00
63006;BME280;53704;52.532;6.426;2023-03-25T12:32:32;100070.25;;;8.95;100.00
63006;BME280;53704;52.532;6.426;2023-03-25T12:40:41;100044.47;;;8.69;100.00
63006;BME280;53704;52.532;6.426;2023-03-25T12:43:09;100058.34;;;8.90;100.00
63006;BME280;53704;52.532;6.426;2023-03-25T12:46:11;100048.78;;;8.95;100.00
63006;BME280;53704;52.532;6.426;2023-03-25T12:52:01;100050.63;;;8.86;100.00
63006;BME280;53704;52.532;6.426;2023-03-25T13:08:20;100034.97;;;9.46;100.00
63006;BME280;53704;52.532;6.426;2023-03-25T13:10:57;100027.53;;;9.25;100.00
63006;BME280;53704;52.532;6.426;2023-03-25T13:13:25;100035.72;;;9.32;100.00
63006;BME280;53704;52.532;6.426;2023-03-25T13:16:04;100030.66;;;9.37;100.00
63006;BME280;53704;52.532;6.426;2023-03-25T13:18:46;100034.63;;;9.49;100.00
63006;BME280;53704;52.532;6.426;2023-03-25T13:21:21;100035.09;;;9.53;100.00
63006;BME280;53704;52.532;6.426;2023-03-25T13:23:57;100034.56;;;9.57;100.00
63006;BME280;53704;52.532;6.426;2023-03-25T13:26:26;100019.69;;;9.47;100.00
63006;BME280;53704;52.532;6.426;2023-03-25T13:32:02;100030.22;;;10.26;100.00
63006;BME280;53704;52.532;6.426;2023-03-25T13:34:50;100029.75;;;10.45;100.00
63006;BME280;53704;52.532;6.426;2023-03-25T13:37:23;100023.56;;;10.60;100.00
63006;BME280;53704;52.532;6.426;2023-03-25T13:42:53;100018.25;;;10.52;100.00
63006;BME280;53704;52.532;6.426;2023-03-25T13:45:21;100018.00;;;10.61;100.00
63006;BME280;53704;52.532;6.426;2023-03-25T13:48:21;100010.56;;;10.63;100.00
63006;BME280;53704;52.532;6.426;2023-03-25T13:50:49;100011.22;;;10.80;100.00
63006;BME280;53704;52.532;6.426;2023-03-25T13:53:24;99996.56;;;10.98;100.00
63006;BME280;53704;52.532;6.426;2023-03-25T13:56:07;99995.72;;;10.67;100.00
63006;BME280;53704;52.532;6.426;2023-03-25T14:01:54;100016.22;;;10.54;100.00
63006;BME280;53704;52.532;6.426;2023-03-25T14:12:24;99999.09;;;11.21;100.00
63006;BME280;53704;52.532;6.426;2023-03-25T14:15:03;100015.03;;;11.01;100.00
63006;BME280;53704;52.532;6.426;2023-03-25T14:17:31;100018.75;;;10.85;100.00
63006;BME280;53704;52.532;6.426;2023-03-25T14:20:00;100014.56;;;10.67;100.00
63006;BME280;53704;52.532;6.426;2023-03-25T14:22:29;100016.94;;;10.62;100.00
63006;BME280;53704;52.532;6.426;2023-03-25T14:24:56;100015.00;;;10.56;100.00
63006;BME280;53704;52.532;6.426;2023-03-25T14:27:26;100026.97;;;10.54;100.00
63006;BME280;53704;52.532;6.426;2023-03-25T14:30:06;100041.72;;;10.58;100.00
63006;BME280;53704;52.532;6.426;2023-03-25T14:32:40;100047.84;;;10.28;100.00
63006;BME280;53704;52.532;6.426;2023-03-25T14:40:45;100048.63;;;10.37;100.00
63006;BME280;53704;52.532;6.426;2023-03-25T14:48:37;100062.63;;;10.09;100.00
63006;BME280;53704;52.532;6.426;2023-03-25T14:56:34;100087.31;;;9.58;100.00
63006;BME280;53704;52.532;6.426;2023-03-25T14:59:12;100088.22;;;9.43;100.00
63006;BME280;53704;52.532;6.426;2023-03-25T15:01:40;100103.69;;;9.32;100.00
63006;BME280;53704;52.532;6.426;2023-03-25T15:04:28;100096.22;;;9.11;100.00
63006;BME280;53704;52.532;6.426;2023-03-25T15:06:55;100099.44;;;9.07;100.00
63006;BME280;53704;52.532;6.426;2023-03-25T15:09:21;100101.78;;;9.01;100.00
63006;BME280;53704;52.532;6.426;2023-03-25T15:12:02;100105.94;;;9.12;100.00
63006;BME280;53704;52.532;6.426;2023-03-25T15:14:41;100131.00;;;8.88;100.00
63006;BME280;53704;52.532;6.426;2023-03-25T15:17:11;100136.03;;;8.50;100.00
63006;BME280;53704;52.532;6.426;2023-03-25T15:22:33;100134.31;;;8.16;100.00
63006;BME280;53704;52.532;6.426;2023-03-25T15:24:59;100128.09;;;8.24;100.00
63006;BME280;53704;52.532;6.426;2023-03-25T15:33:03;100150.09;;;8.27;100.00
63006;BME280;53704;52.532;6.426;2023-03-25T15:35:59;100143.03;;;8.34;100.00
63006;BME280;53704;52.532;6.426;2023-03-25T15:41:40;100157.47;;;8.33;100.00
63006;BME280;53704;52.532;6.426;2023-03-25T15:50:34;100147.28;;;8.54;100.00
63006;BME280;53704;52.532;6.426;2023-03-25T15:55:36;100155.31;;;8.45;100.00
63006;BME280;53704;52.532;6.426;2023-03-25T15:58:09;100153.63;;;8.44;100.00
63006;BME280;53704;52.532;6.426;2023-03-25T16:00:44;100161.88;;;8.51;100.00
63006;BME280;53704;52.532;6.426;2023-03-25T16:03:14;100166.75;;;8.56;100.00
63006;BME280;53704;52.532;6.426;2023-03-25T16:05:46;100173.44;;;8.43;100.00
63006;BME280;53704;52.532;6.426;2023-03-25T16:08:20;100168.38;;;8.40;100.00